sensor_id;sensor_type;location;lat;lon;timestamp;pressure;altitude;pressure_sealevel;temperature;humidity
10145;BME280;5113;41.822;23.564;2023-02-11T00:00:25;-10773.34;;;-5.85;94.16
10145;BME280;5113;41.822;23.564;2023-02-11T00:03:33;-10768.16;;;-6.04;96.28
10145;BME280;5113;41.822;23.564;2023-02-11T00:06:39;-10775.16;;;-5.78;92.90
10145;BME280;5113;41.822;23.564;2023-02-11T00:09:45;-10773.19;;;-5.85;94.73
10145;BME280;5113;41.822;23.564;2023-02-11T00:12:51;-10763.13;;;-6.22;95.85
10145;BME280;5113;41.822;23.564;2023-02-11T00:15:57;-10767.63;;;-6.06;95.28
10145;BME280;5113;41.822;23.564;2023-02-11T00:19:05;-10763.97;;;-6.19;96.64
10145;BME280;5113;41.822;23.564;2023-02-11T00:22:11;-10761.31;;;-6.28;96.26
10145;BME280;5113;41.822;23.564;2023-02-11T00:25:18;-10760.34;;;-6.32;95.55
10145;BME280;5113;41.822;23.564;2023-02-11T00:28:24;-10729.50;;;-7.44;100.00
10145;BME280;5113;41.822;23.564;2023-02-11T00:31:32;-10722.66;;;-7.69;100.00
10145;BME280;5113;41.822;23.564;2023-02-11T00:34:39;-10730.75;;;-7.40;100.00
10145;BME280;5113;41.822;23.564;2023-02-11T00:37:45;-10717.34;;;-7.88;100.00
10145;BME280;5113;41.822;23.564;2023-02-11T00:40:51;-10720.72;;;-7.76;100.00
10145;BME280;5113;41.822;23.564;2023-02-11T00:43:58;-10714.56;;;-7.99;100.00
10145;BME280;5113;41.822;23.564;2023-02-11T00:47:04;-10713.72;;;-8.02;100.00
10145;BME280;5113;41.822;23.564;2023-02-11T00:50:11;-10710.53;;;-8.13;100.00
10145;BME280;5113;41.822;23.564;2023-02-11T00:53:17;-10711.50;;;-8.10;100.00
10145;BME280;5113;41.822;23.564;2023-02-11T00:56:24;-10709.00;;;-8.19;100.00
10145;BME280;5113;41.822;23.564;2023-02-11T00:59:30;-10734.09;;;-7.27;100.00
10145;BME280;5113;41.822;23.564;2023-02-11T01:02:36;-10750.44;;;-6.68;100.00
10145;BME280;5113;41.822;23.564;2023-02-11T01:05:44;-10756.88;;;-6.45;97.03
10145;BME280;5113;41.822;23.564;2023-02-11T01:08:50;-10756.72;;;-6.45;95.04
10145;BME280;5113;41.822;23.564;2023-02-11T01:11:56;-10755.75;;;-6.49;94.98
10145;BME280;5113;41.822;23.564;2023-02-11T01:15:04;-10743.19;;;-6.94;96.23
10145;BME280;5113;41.822;23.564;2023-02-11T01:18:10;-10730.91;;;-7.39;99.42
10145;BME280;5113;41.822;23.564;2023-02-11T01:21:18;-10745.13;;;-6.87;99.21
10145;BME280;5113;41.822;23.564;2023-02-11T01:24:24;-10746.66;;;-6.82;96.97
10145;BME280;5113;41.822;23.564;2023-02-11T01:27:30;-10747.78;;;-6.78;94.66
10145;BME280;5113;41.822;23.564;2023-02-11T01:30:36;-10749.75;;;-6.71;96.77
10145;BME280;5113;41.822;23.564;2023-02-11T01:33:42;-10758.13;;;-6.40;92.93
10145;BME280;5113;41.822;23.564;2023-02-11T01:36:50;-10747.78;;;-6.78;95.48
10145;BME280;5113;41.822;23.564;2023-02-11T01:39:56;-10750.03;;;-6.70;96.06
10145;BME280;5113;41.822;23.564;2023-02-11T01:43:01;-10747.09;;;-6.80;96.57
10145;BME280;5113;41.822;23.564;2023-02-11T01:46:28;-10744.56;;;-6.89;96.57
10145;BME280;5113;41.822;23.564;2023-02-11T01:49:38;-10727.41;;;-7.52;99.20
10145;BME280;5113;41.822;23.564;2023-02-11T01:52:46;-10717.34;;;-7.88;100.00
10145;BME280;5113;41.822;23.564;2023-02-11T01:55:53;-10712.34;;;-8.07;100.00
10145;BME280;5113;41.822;23.564;2023-02-11T01:59:23;-10714.56;;;-7.99;100.00
10145;BME280;5113;41.822;23.564;2023-02-11T02:02:37;-10716.38;;;-7.92;100.00
10145;BME280;5113;41.822;23.564;2023-02-11T02:05:50;-10729.34;;;-7.45;100.00
10145;BME280;5113;41.822;23.564;2023-02-11T02:09:02;-10735.63;;;-7.22;98.72
10145;BME280;5113;41.822;23.564;2023-02-11T02:12:10;-10716.25;;;-7.92;100.00
10145;BME280;5113;41.822;23.564;2023-02-11T02:15:23;-10740.66;;;-7.04;99.37
10145;BME280;5113;41.822;23.564;2023-02-11T02:18:35;-10711.50;;;-8.10;100.00
10145;BME280;5113;41.822;23.564;2023-02-11T02:22:12;-10715.13;;;-7.96;100.00
10145;BME280;5113;41.822;23.564;2023-02-11T02:29:21;-10733.81;;;-7.28;98.70
10145;BME280;5113;41.822;23.564;2023-02-11T02:32:51;-10734.09;;;-7.27;98.48
10145;BME280;5113;41.822;23.564;2023-02-11T02:36:14;-10737.31;;;-7.16;96.50
10145;BME280;5113;41.822;23.564;2023-02-11T02:39:25;-10723.50;;;-7.66;98.05
10145;BME280;5113;41.822;23.564;2023-02-11T02:42:34;-10716.38;;;-7.92;99.67
10145;BME280;5113;41.822;23.564;2023-02-11T02:45:40;-10706.75;;;-8.27;100.00
10145;BME280;5113;41.822;23.564;2023-02-11T02:48:49;-10721.97;;;-7.72;100.00
10145;BME280;5113;41.822;23.564;2023-02-11T02:52:09;-10704.25;;;-8.36;100.00
10145;BME280;5113;41.822;23.564;2023-02-11T02:59:25;-10716.66;;;-7.91;99.04
10145;BME280;5113;41.822;23.564;2023-02-11T03:02:38;-10699.78;;;-8.52;100.00
10145;BME280;5113;41.822;23.564;2023-02-11T03:05:52;-10689.88;;;-8.88;100.00
10145;BME280;5113;41.822;23.564;2023-02-11T03:09:05;-10710.81;;;-8.12;100.00
10145;BME280;5113;41.822;23.564;2023-02-11T03:12:15;-10716.38;;;-7.92;100.00
10145;BME280;5113;41.822;23.564;2023-02-11T03:15:24;-10729.09;;;-7.46;99.57
10145;BME280;5113;41.822;23.564;2023-02-11T03:18:34;-10721.97;;;-7.72;99.99
10145;BME280;5113;41.822;23.564;2023-02-11T03:21:43;-10711.22;;;-8.11;100.00
10145;BME280;5113;41.822;23.564;2023-02-11T03:24:52;-10711.38;;;-8.10;100.00
10145;BME280;5113;41.822;23.564;2023-02-11T03:28:05;-10694.78;;;-8.71;100.00
10145;BME280;5113;41.822;23.564;2023-02-11T03:31:17;-10693.94;;;-8.74;100.00
10145;BME280;5113;41.822;23.564;2023-02-11T03:34:28;-10706.91;;;-8.26;100.00
10145;BME280;5113;41.822;23.564;2023-02-11T03:37:39;-10717.09;;;-7.89;100.00
10145;BME280;5113;41.822;23.564;2023-02-11T03:40:46;-10721.41;;;-7.74;98.41
10145;BME280;5113;41.822;23.564;2023-02-11T03:43:55;-10725.19;;;-7.60;98.12
10145;BME280;5113;41.822;23.564;2023-02-11T03:47:04;-10723.63;;;-7.66;97.19
10145;BME280;5113;41.822;23.564;2023-02-11T03:50:14;-10726.00;;;-7.57;97.57
10145;BME280;5113;41.822;23.564;2023-02-11T03:53:22;-10715.97;;;-7.93;99.08
10145;BME280;5113;41.822;23.564;2023-02-11T03:56:32;-10703.28;;;-8.40;99.21
10145;BME280;5113;41.822;23.564;2023-02-11T03:59:53;-10686.41;;;-9.01;100.00
10145;BME280;5113;41.822;23.564;2023-02-11T04:02:59;-10691.84;;;-8.81;100.00
10145;BME280;5113;41.822;23.564;2023-02-11T04:06:06;-10691.97;;;-8.81;100.00
10145;BME280;5113;41.822;23.564;2023-02-11T04:09:13;-10686.53;;;-9.01;100.00
10145;BME280;5113;41.822;23.564;2023-02-11T04:12:19;-10679.44;;;-9.26;100.00
10145;BME280;5113;41.822;23.564;2023-02-11T04:15:26;-10667.59;;;-9.70;100.00
10145;BME280;5113;41.822;23.564;2023-02-11T04:18:32;-10685.56;;;-9.04;100.00
10145;BME280;5113;41.822;23.564;2023-02-11T04:21:38;-10688.91;;;-8.92;100.00
10145;BME280;5113;41.822;23.564;2023-02-11T04:24:45;-10677.06;;;-9.35;100.00
10145;BME280;5113;41.822;23.564;2023-02-11T04:27:51;-10676.50;;;-9.37;100.00
10145;BME280;5113;41.822;23.564;2023-02-11T04:30:57;-10687.25;;;-8.98;100.00
10145;BME280;5113;41.822;23.564;2023-02-11T04:34:03;-10697.84;;;-8.59;100.00
10145;BME280;5113;41.822;23.564;2023-02-11T04:37:09;-10706.47;;;-8.28;100.00
10145;BME280;5113;41.822;23.564;2023-02-11T04:40:17;-10717.91;;;-7.86;99.87
10145;BME280;5113;41.822;23.564;2023-02-11T04:43:23;-10718.75;;;-7.83;97.85
10145;BME280;5113;41.822;23.564;2023-02-11T04:46:29;-10715.41;;;-7.95;98.50
10145;BME280;5113;41.822;23.564;2023-02-11T04:49:35;-10705.91;;;-8.30;99.28
10145;BME280;5113;41.822;23.564;2023-02-11T04:52:42;-10684.59;;;-9.08;100.00
10145;BME280;5113;41.822;23.564;2023-02-11T04:55:49;-10691.97;;;-8.81;100.00
10145;BME280;5113;41.822;23.564;2023-02-11T04:58:56;-10695.31;;;-8.69;99.64
10145;BME280;5113;41.822;23.564;2023-02-11T05:02:02;-10693.94;;;-8.74;100.00
10145;BME280;5113;41.822;23.564;2023-02-11T05:05:08;-10692.25;;;-8.80;100.00
10145;BME280;5113;41.822;23.564;2023-02-11T05:08:14;-10696.72;;;-8.63;100.00
10145;BME280;5113;41.822;23.564;2023-02-11T05:11:23;-10703.28;;;-8.40;100.00
10145;BME280;5113;41.822;23.564;2023-02-11T05:14:30;-10691.16;;;-8.84;100.00
10145;BME280;5113;41.822;23.564;2023-02-11T05:17:36;-10697.84;;;-8.59;98.50
10145;BME280;5113;41.822;23.564;2023-02-11T05:20:42;-10694.63;;;-8.71;97.16
10145;BME280;5113;41.822;23.564;2023-02-11T05:23:49;-10671.63;;;-9.55;100.00
10145;BME280;5113;41.822;23.564;2023-02-11T05:26:56;-10656.56;;;-10.10;100.00
10145;BME280;5113;41.822;23.564;2023-02-11T05:30:04;-10656.84;;;-10.09;100.00
10145;BME280;5113;41.822;23.564;2023-02-11T05:33:10;-10667.16;;;-9.71;100.00
10145;BME280;5113;41.822;23.564;2023-02-11T05:36:17;-10681.25;;;-9.20;100.00
10145;BME280;5113;41.822;23.564;2023-02-11T05:39:23;-10693.66;;;-8.75;100.00
10145;BME280;5113;41.822;23.564;2023-02-11T05:42:31;-10676.09;;;-9.39;100.00
10145;BME280;5113;41.822;23.564;2023-02-11T05:45:37;-10696.03;;;-8.66;100.00
10145;BME280;5113;41.822;23.564;2023-02-11T05:48:43;-10705.38;;;-8.32;98.14
10145;BME280;5113;41.822;23.564;2023-02-11T05:51:49;-10716.81;;;-7.90;96.68
10145;BME280;5113;41.822;23.564;2023-02-11T05:54:56;-10712.91;;;-8.05;97.06
10145;BME280;5113;41.822;23.564;2023-02-11T05:58:04;-10724.91;;;-7.61;95.04
10145;BME280;5113;41.822;23.564;2023-02-11T06:01:10;-10729.09;;;-7.46;95.06
10145;BME280;5113;41.822;23.564;2023-02-11T06:04:16;-10692.53;;;-8.79;96.24
10145;BME280;5113;41.822;23.564;2023-02-11T06:07:22;-10677.91;;;-9.32;100.00
10145;BME280;5113;41.822;23.564;2023-02-11T06:10:29;-10704.41;;;-8.36;100.00
10145;BME280;5113;41.822;23.564;2023-02-11T06:13:36;-10713.19;;;-8.04;97.05
10145;BME280;5113;41.822;23.564;2023-02-11T06:16:43;-10727.97;;;-7.50;96.72
10145;BME280;5113;41.822;23.564;2023-02-11T06:19:49;-10731.59;;;-7.37;93.61
10145;BME280;5113;41.822;23.564;2023-02-11T06:22:55;-10732.16;;;-7.35;93.69
10145;BME280;5113;41.822;23.564;2023-02-11T06:26:03;-10748.19;;;-6.76;91.42
10145;BME280;5113;41.822;23.564;2023-02-11T06:29:10;-10757.69;;;-6.42;88.43
10145;BME280;5113;41.822;23.564;2023-02-11T06:32:17;-10764.53;;;-6.17;86.66
10145;BME280;5113;41.822;23.564;2023-02-11T06:35:43;-10769.28;;;-6.00;84.68
10145;BME280;5113;41.822;23.564;2023-02-11T06:38:50;-10785.63;;;-5.40;81.47
10145;BME280;5113;41.822;23.564;2023-02-11T06:41:56;-10792.47;;;-5.15;79.41
10145;BME280;5113;41.822;23.564;2023-02-11T06:45:04;-10805.03;;;-4.70;77.13
10145;BME280;5113;41.822;23.564;2023-02-11T06:48:12;-10791.91;;;-5.17;77.52
10145;BME280;5113;41.822;23.564;2023-02-11T06:51:19;-10789.97;;;-5.24;79.47
10145;BME280;5113;41.822;23.564;2023-02-11T06:54:25;-10789.69;;;-5.25;80.96
10145;BME280;5113;41.822;23.564;2023-02-11T06:57:31;-10770.41;;;-5.95;83.72
10145;BME280;5113;41.822;23.564;2023-02-11T07:00:39;-10776.53;;;-5.73;87.21
10145;BME280;5113;41.822;23.564;2023-02-11T07:03:45;-10779.91;;;-5.61;85.40
10145;BME280;5113;41.822;23.564;2023-02-11T07:06:51;-10773.47;;;-5.84;86.56
10145;BME280;5113;41.822;23.564;2023-02-11T07:09:58;-10796.94;;;-4.99;83.31
10145;BME280;5113;41.822;23.564;2023-02-11T07:13:04;-10806.44;;;-4.64;81.55
10145;BME280;5113;41.822;23.564;2023-02-11T07:16:13;-10804.91;;;-4.70;80.94
10145;BME280;5113;41.822;23.564;2023-02-11T07:19:20;-10816.78;;;-4.27;78.99
10145;BME280;5113;41.822;23.564;2023-02-11T07:22:26;-10815.94;;;-4.30;79.87
10145;BME280;5113;41.822;23.564;2023-02-11T07:25:35;-10830.47;;;-3.77;76.61
10145;BME280;5113;41.822;23.564;2023-02-11T07:28:41;-10835.94;;;-3.57;73.82
10145;BME280;5113;41.822;23.564;2023-02-11T07:31:49;-10835.25;;;-3.60;73.14
10145;BME280;5113;41.822;23.564;2023-02-11T07:34:56;-10840.41;;;-3.41;72.47
10145;BME280;5113;41.822;23.564;2023-02-11T07:38:03;-10832.59;;;-3.70;73.02
10145;BME280;5113;41.822;23.564;2023-02-11T07:41:11;-10841.38;;;-3.38;72.32
10145;BME280;5113;41.822;23.564;2023-02-11T07:44:18;-10853.69;;;-2.93;71.63
10145;BME280;5113;41.822;23.564;2023-02-11T07:47:26;-10868.53;;;-2.39;69.36
10145;BME280;5113;41.822;23.564;2023-02-11T07:50:33;-10858.03;;;-2.77;67.52
10145;BME280;5113;41.822;23.564;2023-02-11T07:53:39;-10869.38;;;-2.36;66.30
10145;BME280;5113;41.822;23.564;2023-02-11T07:56:45;-10862.09;;;-2.62;67.12
10145;BME280;5113;41.822;23.564;2023-02-11T07:59:52;-10863.34;;;-2.58;65.88
10145;BME280;5113;41.822;23.564;2023-02-11T08:02:59;-10876.09;;;-2.12;64.38
10145;BME280;5113;41.822;23.564;2023-02-11T08:06:07;-10877.47;;;-2.07;65.29
10145;BME280;5113;41.822;23.564;2023-02-11T08:09:14;-10876.50;;;-2.10;66.39
10145;BME280;5113;41.822;23.564;2023-02-11T08:12:21;-10884.75;;;-1.80;66.31
10145;BME280;5113;41.822;23.564;2023-02-11T08:15:27;-10894.84;;;-1.44;65.95
10145;BME280;5113;41.822;23.564;2023-02-11T08:18:35;-10891.91;;;-1.54;67.13
10145;BME280;5113;41.822;23.564;2023-02-11T08:21:41;-10904.63;;;-1.08;67.46
10145;BME280;5113;41.822;23.564;2023-02-11T08:24:48;-10907.16;;;-0.99;65.38
10145;BME280;5113;41.822;23.564;2023-02-11T08:27:57;-10913.31;;;-0.77;65.56
10145;BME280;5113;41.822;23.564;2023-02-11T08:31:04;-10918.34;;;-0.58;63.81
10145;BME280;5113;41.822;23.564;2023-02-11T08:34:13;-10921.84;;;-0.46;63.35
10145;BME280;5113;41.822;23.564;2023-02-11T08:37:21;-10923.69;;;-0.39;61.67
10145;BME280;5113;41.822;23.564;2023-02-11T08:40:28;-10932.78;;;-0.06;60.88
10145;BME280;5113;41.822;23.564;2023-02-11T08:43:34;-10934.03;;;-0.02;59.75
10145;BME280;5113;41.822;23.564;2023-02-11T08:46:40;-10935.16;;;0.03;60.03
10145;BME280;5113;41.822;23.564;2023-02-11T08:49:47;-10926.75;;;-0.28;60.06
10145;BME280;5113;41.822;23.564;2023-02-11T08:52:53;-10941.88;;;0.27;59.09
10145;BME280;5113;41.822;23.564;2023-02-11T08:55:59;-10943.56;;;0.33;58.16
10145;BME280;5113;41.822;23.564;2023-02-11T08:59:06;-10937.81;;;0.12;59.35
10145;BME280;5113;41.822;23.564;2023-02-11T09:02:13;-10945.25;;;0.39;59.58
10145;BME280;5113;41.822;23.564;2023-02-11T09:05:21;-10951.13;;;0.60;59.90
10145;BME280;5113;41.822;23.564;2023-02-11T09:08:27;-10963.75;;;1.06;57.70
10145;BME280;5113;41.822;23.564;2023-02-11T09:11:34;-10965.56;;;1.13;56.62
10145;BME280;5113;41.822;23.564;2023-02-11T09:14:40;-10960.66;;;0.95;57.36
10145;BME280;5113;41.822;23.564;2023-02-11T09:17:46;-10963.03;;;1.04;58.48
10145;BME280;5113;41.822;23.564;2023-02-11T09:21:01;-10976.22;;;1.51;56.56
10145;BME280;5113;41.822;23.564;2023-02-11T09:24:07;-11002.44;;;2.46;54.17
10145;BME280;5113;41.822;23.564;2023-02-11T09:27:14;-10980.56;;;1.67;55.68
10145;BME280;5113;41.822;23.564;2023-02-11T09:30:20;-10987.56;;;1.92;54.57
10145;BME280;5113;41.822;23.564;2023-02-11T09:33:26;-10998.09;;;2.30;53.14
10145;BME280;5113;41.822;23.564;2023-02-11T09:36:36;-11005.50;;;2.57;52.81
10145;BME280;5113;41.822;23.564;2023-02-11T09:39:43;-11012.94;;;2.84;48.86
10145;BME280;5113;41.822;23.564;2023-02-11T09:42:52;-11008.19;;;2.67;47.10
10145;BME280;5113;41.822;23.564;2023-02-11T09:46:09;-11010.00;;;2.74;47.43
10145;BME280;5113;41.822;23.564;2023-02-11T09:49:21;-11003.25;;;2.49;45.73
10145;BME280;5113;41.822;23.564;2023-02-11T09:52:37;-11009.56;;;2.72;42.76
10145;BME280;5113;41.822;23.564;2023-02-11T09:55:47;-11005.78;;;2.58;43.38
10145;BME280;5113;41.822;23.564;2023-02-11T09:58:59;-11028.78;;;3.42;42.56
10145;BME280;5113;41.822;23.564;2023-02-11T10:02:13;-11046.47;;;4.06;42.69
10145;BME280;5113;41.822;23.564;2023-02-11T10:05:34;-11033.69;;;3.59;41.24
10145;BME280;5113;41.822;23.564;2023-02-11T10:08:53;-11020.22;;;3.11;39.45
10145;BME280;5113;41.822;23.564;2023-02-11T10:15:50;-11043.94;;;3.96;40.12
10145;BME280;5113;41.822;23.564;2023-02-11T10:19:12;-11052.34;;;4.27;39.42
10145;BME280;5113;41.822;23.564;2023-02-11T10:22:26;-11041.97;;;3.89;37.84
10145;BME280;5113;41.822;23.564;2023-02-11T10:25:37;-11054.88;;;4.36;37.53
10145;BME280;5113;41.822;23.564;2023-02-11T10:28:46;-11070.75;;;4.93;36.47
10145;BME280;5113;41.822;23.564;2023-02-11T10:31:53;-11047.16;;;4.08;35.27
10145;BME280;5113;41.822;23.564;2023-02-11T10:35:03;-11047.88;;;4.11;34.52
10145;BME280;5113;41.822;23.564;2023-02-11T10:38:15;-11063.03;;;4.65;34.90
10145;BME280;5113;41.822;23.564;2023-02-11T10:41:26;-11070.03;;;4.91;36.28
10145;BME280;5113;41.822;23.564;2023-02-11T10:44:38;-11073.41;;;5.03;35.54
10145;BME280;5113;41.822;23.564;2023-02-11T10:47:44;-11086.19;;;5.49;35.93
10145;BME280;5113;41.822;23.564;2023-02-11T10:51:06;-11080.16;;;5.27;34.74
10145;BME280;5113;41.822;23.564;2023-02-11T10:54:17;-11080.16;;;5.27;36.03
10145;BME280;5113;41.822;23.564;2023-02-11T10:57:29;-11074.25;;;5.06;34.11
10145;BME280;5113;41.822;23.564;2023-02-11T11:00:37;-11096.72;;;5.87;33.31
10145;BME280;5113;41.822;23.564;2023-02-11T11:03:47;-11093.06;;;5.74;33.65
10145;BME280;5113;41.822;23.564;2023-02-11T11:06:54;-11097.56;;;5.90;34.50
10145;BME280;5113;41.822;23.564;2023-02-11T11:10:04;-11092.66;;;5.73;34.56
10145;BME280;5113;41.822;23.564;2023-02-11T11:13:30;-11094.75;;;5.80;32.64
10145;BME280;5113;41.822;23.564;2023-02-11T11:16:37;-11103.75;;;6.13;32.46
10145;BME280;5113;41.822;23.564;2023-02-11T11:19:43;-11109.34;;;6.33;31.65
10145;BME280;5113;41.822;23.564;2023-02-11T11:22:53;-11117.94;;;6.64;31.89
10145;BME280;5113;41.822;23.564;2023-02-11T11:26:13;-11110.06;;;6.36;31.76
10145;BME280;5113;41.822;23.564;2023-02-11T11:29:25;-11131.81;;;7.14;34.03
10145;BME280;5113;41.822;23.564;2023-02-11T11:32:34;-11130.13;;;7.08;31.76
10145;BME280;5113;41.822;23.564;2023-02-11T11:35:59;-11102.34;;;6.08;32.83
10145;BME280;5113;41.822;23.564;2023-02-11T11:39:17;-11113.84;;;6.49;31.87
10145;BME280;5113;41.822;23.564;2023-02-11T11:42:27;-11144.63;;;7.60;32.01
10145;BME280;5113;41.822;23.564;2023-02-11T11:45:35;-11150.50;;;7.82;33.11
10145;BME280;5113;41.822;23.564;2023-02-11T11:48:46;-11123.97;;;6.86;32.38
10145;BME280;5113;41.822;23.564;2023-02-11T11:51:59;-11129.03;;;7.04;33.59
10145;BME280;5113;41.822;23.564;2023-02-11T11:55:14;-11141.25;;;7.48;32.91
10145;BME280;5113;41.822;23.564;2023-02-11T11:58:22;-11143.06;;;7.55;33.31
10145;BME280;5113;41.822;23.564;2023-02-11T12:01:37;-11137.31;;;7.34;34.56
10145;BME280;5113;41.822;23.564;2023-02-11T12:04:59;-11131.97;;;7.15;34.33
10145;BME280;5113;41.822;23.564;2023-02-11T12:08:14;-11142.78;;;7.54;34.55
10145;BME280;5113;41.822;23.564;2023-02-11T12:11:25;-11137.16;;;7.34;34.29
10145;BME280;5113;41.822;23.564;2023-02-11T12:14:42;-11143.91;;;7.58;33.30
10145;BME280;5113;41.822;23.564;2023-02-11T12:18:03;-11134.34;;;7.23;33.33
10145;BME280;5113;41.822;23.564;2023-02-11T12:21:25;-11152.91;;;7.90;33.12
10145;BME280;5113;41.822;23.564;2023-02-11T12:24:57;-11155.16;;;7.99;33.09
10145;BME280;5113;41.822;23.564;2023-02-11T12:28:19;-11143.62;;;7.57;33.88
10145;BME280;5113;41.822;23.564;2023-02-11T12:31:43;-11146.16;;;7.66;33.65
10145;BME280;5113;41.822;23.564;2023-02-11T12:38:49;-11146.16;;;7.66;34.08
10145;BME280;5113;41.822;23.564;2023-02-11T12:42:32;-11158.09;;;8.09;34.38
10145;BME280;5113;41.822;23.564;2023-02-11T12:46:26;-11127.63;;;6.99;35.70
10145;BME280;5113;41.822;23.564;2023-02-11T12:49:55;-11136.59;;;7.32;35.44
10145;BME280;5113;41.822;23.564;2023-02-11T12:53:23;-11130.69;;;7.10;34.01
10145;BME280;5113;41.822;23.564;2023-02-11T12:56:37;-11145.03;;;7.62;33.16
10145;BME280;5113;41.822;23.564;2023-02-11T12:59:51;-11125.09;;;6.90;33.75
10145;BME280;5113;41.822;23.564;2023-02-11T13:03:03;-11111.59;;;6.41;34.15
10145;BME280;5113;41.822;23.564;2023-02-11T13:06:13;-11125.09;;;6.90;33.92
10145;BME280;5113;41.822;23.564;2023-02-11T13:09:24;-11151.91;;;7.87;33.34
10145;BME280;5113;41.822;23.564;2023-02-11T13:12:35;-11152.34;;;7.88;33.83
10145;BME280;5113;41.822;23.564;2023-02-11T13:16:02;-11152.63;;;7.89;32.62
10145;BME280;5113;41.822;23.564;2023-02-11T13:19:17;-11160.50;;;8.18;32.70
10145;BME280;5113;41.822;23.564;2023-02-11T13:22:30;-11151.50;;;7.85;32.75
10145;BME280;5113;41.822;23.564;2023-02-11T13:25:41;-11140.25;;;7.45;32.67
10145;BME280;5113;41.822;23.564;2023-02-11T13:28:55;-11158.81;;;8.12;32.85
10145;BME280;5113;41.822;23.564;2023-02-11T13:32:07;-11150.66;;;7.82;33.51
10145;BME280;5113;41.822;23.564;2023-02-11T13:35:27;-11151.91;;;7.87;32.19
10145;BME280;5113;41.822;23.564;2023-02-11T13:38:34;-11147.69;;;7.72;33.73
10145;BME280;5113;41.822;23.564;2023-02-11T13:41:41;-11143.22;;;7.55;33.94
10145;BME280;5113;41.822;23.564;2023-02-11T13:44:50;-11151.78;;;7.86;33.03
10145;BME280;5113;41.822;23.564;2023-02-11T13:47:57;-11155.72;;;8.01;33.06
10145;BME280;5113;41.822;23.564;2023-02-11T13:51:06;-11162.19;;;8.24;32.47
10145;BME280;5113;41.822;23.564;2023-02-11T13:54:21;-11131.81;;;7.14;32.29
10145;BME280;5113;41.822;23.564;2023-02-11T13:57:34;-11132.81;;;7.18;32.90
10145;BME280;5113;41.822;23.564;2023-02-11T14:00:46;-11128.47;;;7.02;32.31
10145;BME280;5113;41.822;23.564;2023-02-11T14:04:18;-11145.59;;;7.64;32.27
10145;BME280;5113;41.822;23.564;2023-02-11T14:08:11;-11151.22;;;7.84;32.52
10145;BME280;5113;41.822;23.564;2023-02-11T14:11:47;-11157.69;;;8.08;31.58
10145;BME280;5113;41.822;23.564;2023-02-11T14:18:59;-11086.31;;;5.50;33.48
10145;BME280;5113;41.822;23.564;2023-02-11T14:22:12;-11093.22;;;5.75;33.92
10145;BME280;5113;41.822;23.564;2023-02-11T14:25:22;-11089.13;;;5.60;34.49
10145;BME280;5113;41.822;23.564;2023-02-11T14:28:30;-11093.63;;;5.76;35.12
10145;BME280;5113;41.822;23.564;2023-02-11T14:31:42;-11088.00;;;5.56;35.50
10145;BME280;5113;41.822;23.564;2023-02-11T14:34:56;-11076.50;;;5.14;36.07
10145;BME280;5113;41.822;23.564;2023-02-11T14:38:18;-11080.00;;;5.27;36.61
10145;BME280;5113;41.822;23.564;2023-02-11T14:41:30;-11069.47;;;4.89;36.73
10145;BME280;5113;41.822;23.564;2023-02-11T14:44:37;-11073.84;;;5.05;37.21
10145;BME280;5113;41.822;23.564;2023-02-11T14:47:48;-11062.19;;;4.62;37.33
10145;BME280;5113;41.822;23.564;2023-02-11T14:51:01;-11063.59;;;4.68;37.52
10145;BME280;5113;41.822;23.564;2023-02-11T14:54:10;-11058.81;;;4.50;37.55
10145;BME280;5113;41.822;23.564;2023-02-11T14:57:19;-11045.34;;;4.02;37.86
10145;BME280;5113;41.822;23.564;2023-02-11T15:00:25;-11046.88;;;4.07;37.84
10145;BME280;5113;41.822;23.564;2023-02-11T15:03:33;-11046.59;;;4.06;38.50
10145;BME280;5113;41.822;23.564;2023-02-11T15:06:44;-11043.53;;;3.95;38.30
10145;BME280;5113;41.822;23.564;2023-02-11T15:09:53;-11032.28;;;3.54;39.48
10145;BME280;5113;41.822;23.564;2023-02-11T15:13:00;-11030.47;;;3.48;39.55
10145;BME280;5113;41.822;23.564;2023-02-11T15:16:08;-11018.41;;;3.04;42.15
10145;BME280;5113;41.822;23.564;2023-02-11T15:19:22;-11008.03;;;2.67;45.24
10145;BME280;5113;41.822;23.564;2023-02-11T15:22:33;-11001.31;;;2.42;46.52
10145;BME280;5113;41.822;23.564;2023-02-11T15:25:44;-11005.09;;;2.56;45.64
10145;BME280;5113;41.822;23.564;2023-02-11T15:28:56;-10997.38;;;2.28;47.08
10145;BME280;5113;41.822;23.564;2023-02-11T15:32:11;-11000.31;;;2.39;46.29
10145;BME280;5113;41.822;23.564;2023-02-11T15:35:18;-10997.81;;;2.29;46.24
10145;BME280;5113;41.822;23.564;2023-02-11T15:38:26;-10996.53;;;2.25;46.37
10145;BME280;5113;41.822;23.564;2023-02-11T15:41:35;-11000.03;;;2.38;46.50
10145;BME280;5113;41.822;23.564;2023-02-11T15:44:42;-10996.25;;;2.24;46.55
10145;BME280;5113;41.822;23.564;2023-02-11T15:47:50;-10982.50;;;1.74;48.45
10145;BME280;5113;41.822;23.564;2023-02-11T15:51:00;-10988.69;;;1.96;48.11
10145;BME280;5113;41.822;23.564;2023-02-11T15:54:17;-10990.38;;;2.03;48.54
10145;BME280;5113;41.822;23.564;2023-02-11T15:57:24;-10979.16;;;1.62;50.09
10145;BME280;5113;41.822;23.564;2023-02-11T16:00:34;-10975.66;;;1.49;50.30
10145;BME280;5113;41.822;23.564;2023-02-11T16:03:41;-10962.75;;;1.03;51.83
10145;BME280;5113;41.822;23.564;2023-02-11T16:06:48;-10961.06;;;0.96;51.39
10145;BME280;5113;41.822;23.564;2023-02-11T16:09:57;-10957.72;;;0.84;51.66
10145;BME280;5113;41.822;23.564;2023-02-11T16:13:17;-10962.75;;;1.03;52.43
10145;BME280;5113;41.822;23.564;2023-02-11T16:16:25;-10965.00;;;1.11;51.96
10145;BME280;5113;41.822;23.564;2023-02-11T16:19:33;-10970.19;;;1.29;51.42
10145;BME280;5113;41.822;23.564;2023-02-11T16:22:39;-10952.09;;;0.64;53.96
10145;BME280;5113;41.822;23.564;2023-02-11T16:25:47;-10949.72;;;0.55;54.45
10145;BME280;5113;41.822;23.564;2023-02-11T16:29:01;-10942.31;;;0.28;56.13
10145;BME280;5113;41.822;23.564;2023-02-11T16:32:15;-10950.00;;;0.56;55.81
10145;BME280;5113;41.822;23.564;2023-02-11T16:35:21;-10942.31;;;0.28;56.07
10145;BME280;5113;41.822;23.564;2023-02-11T16:38:28;-10940.63;;;0.22;58.46
10145;BME280;5113;41.822;23.564;2023-02-11T16:41:38;-10935.56;;;0.04;59.35
10145;BME280;5113;41.822;23.564;2023-02-11T16:44:45;-10932.91;;;-0.06;59.74
10145;BME280;5113;41.822;23.564;2023-02-11T16:47:51;-10933.34;;;-0.04;60.08
10145;BME280;5113;41.822;23.564;2023-02-11T16:50:58;-10934.47;;;0.00;59.52
10145;BME280;5113;41.822;23.564;2023-02-11T16:54:04;-10931.38;;;-0.11;59.51
10145;BME280;5113;41.822;23.564;2023-02-11T16:57:14;-10928.44;;;-0.22;58.87